This is the latest recevied weather packets stored in our database for station/object LX2ZZ-13. If no packets are shown the sender has not sent any weather packets the latest 10 day(s).
| Time | Temp. | Humidity | Pressure | Rain* | Wind** | Luminosity | Snow |
|---|---|---|---|---|---|---|---|
| 1777690544 | 6.67° C | 87% | 1021.1 hPa | 0 mm | - | - | - |
| 1777681527 | 5.56° C | 88% | 1021.6 hPa | 0 mm | - | - | - |
| 1777680321 | 7.22° C | 82% | 1021.7 hPa | 0 mm | - | - | - |
| 1777671937 | 5.56° C | 84% | 1022.2 hPa | 0 mm | - | - | - |
| 1777667172 | 9.44° C | 68% | 1022.1 hPa | 0 mm | - | - | - |
| 1777665363 | 8.33° C | 72% | 1021.8 hPa | 0 mm | - | - | - |
| 1777662347 | 11.67° C | 64% | 1021.6 hPa | 0 mm | - | - | - |
| 1777656919 | 20.56° C | 29% | 1021.3 hPa | 0 mm | - | - | - |
| 1777646725 | 23.89° C | 24% | 1022.4 hPa | 0 mm | - | - | - |
| 1777644916 | 23.33° C | 25% | 1022.4 hPa | 0 mm | - | - | - |
| 1777644373 | 23.33° C | 25% | 1022.6 hPa | 0 mm | - | - | - |
| 1777643770 | 22.78° C | 28% | 1022.7 hPa | 0 mm | - | - | - |
| 1777642564 | 22.78° C | 26% | 1023 hPa | 0 mm | - | - | - |
| 1777641378 | 22.78° C | 28% | 1023.2 hPa | 0 mm | - | - | - |
| 1777639569 | 21.67° C | 29% | 1023.4 hPa | 0 mm | - | - | - |
| 1777638343 | 21.11° C | 29% | 1023.6 hPa | 0 mm | - | - | - |
| 1777632975 | 18.33° C | 32% | 1024.3 hPa | 0 mm | - | - | - |
| 1777629356 | 17.78° C | 31% | 1024.5 hPa | 0 mm | - | - | - |
| 1777627547 | 17.22° C | 30% | 1024.6 hPa | 0 mm | - | - | - |
| 1777625737 | 16.11° C | 33% | 1024.6 hPa | 0 mm | - | - | - |
| 1777617353 | 10.56° C | 45% | 1024.2 hPa | 0 mm | - | - | - |
| 1777616750 | 10° C | 47% | 1024.2 hPa | 0 mm | - | - | - |
| 1777611925 | 5° C | 54% | 1024.1 hPa | 0 mm | - | - | - |
| 1777601130 | 6.11° C | 50% | 1024 hPa | 0 mm | - | - | - |
| 1777593349 | 6.67° C | 50% | 1024.4 hPa | 0 mm | - | - | - |
* Rain latest hour (hover to see other rain measurements)
** Current wind speed in m/s (hover to see current wind gust speed)